createdAt,value
2022-08-05T00:02:50.846Z,53.40
2022-08-05T00:06:35.928Z,53.40
2022-08-05T00:10:18.165Z,53.40
2022-08-05T00:14:00.128Z,53.30
2022-08-05T00:17:41.939Z,53.30
2022-08-05T00:21:23.848Z,53.40
2022-08-05T00:25:12.873Z,53.50
2022-08-05T00:28:54.817Z,53.40
2022-08-05T00:32:36.674Z,53.30
2022-08-05T00:37:10.880Z,53.30
2022-08-05T00:40:26.904Z,53.40
2022-08-05T00:44:10.505Z,53.60
2022-08-05T00:47:56.801Z,53.70
2022-08-05T00:51:51.539Z,54.10
2022-08-05T00:55:42.751Z,54.50
2022-08-05T00:59:25.632Z,54.80
2022-08-05T01:03:22.406Z,55.00
2022-08-05T01:07:05.409Z,55.10
2022-08-05T01:10:56.934Z,55.30
2022-08-05T01:14:49.140Z,56.80
2022-08-05T01:18:37.594Z,57.00
2022-08-05T01:22:37.215Z,56.10
2022-08-05T01:26:34.511Z,57.90
2022-08-05T01:30:18.649Z,55.70
2022-08-05T01:34:13.730Z,56.00
2022-08-05T01:37:57.912Z,57.50
2022-08-05T01:41:44.783Z,56.00
2022-08-05T01:45:34.763Z,56.80
2022-08-05T01:49:24.975Z,56.40
2022-08-05T01:53:15.159Z,57.40
2022-08-05T01:58:09.846Z,58.20
2022-08-05T02:01:28.713Z,57.80
2022-08-05T02:05:23.364Z,57.20
2022-08-05T02:09:06.914Z,58.00
2022-08-05T02:13:01.834Z,58.40
2022-08-05T02:16:55.239Z,58.40
2022-08-05T02:20:49.793Z,60.70
2022-08-05T02:24:37.579Z,60.60
2022-08-05T02:28:32.167Z,59.70
2022-08-05T02:32:24.237Z,61.80
2022-08-05T02:36:15.600Z,60.30
2022-08-05T02:39:57.862Z,60.50
2022-08-05T02:44:02.650Z,60.00
2022-08-05T02:48:07.567Z,60.70
2022-08-05T02:52:03.080Z,60.40
2022-08-05T02:55:54.226Z,60.60
2022-08-05T02:59:50.717Z,61.10
2022-08-05T03:04:03.412Z,61.90
2022-08-05T03:08:06.717Z,60.80
2022-08-05T03:11:57.623Z,61.80
2022-08-05T03:15:43.517Z,61.40
2022-08-05T03:19:33.953Z,62.40
2022-08-05T03:23:17.985Z,61.70
2022-08-05T03:27:00.386Z,61.80
2022-08-05T03:30:43.254Z,62.40
2022-08-05T03:34:27.181Z,62.80
2022-08-05T03:38:12.263Z,63.20
2022-08-05T03:41:56.880Z,64.20
2022-08-05T03:45:57.468Z,63.30
2022-08-05T03:49:51.585Z,63.50
2022-08-05T03:55:54.145Z,63.60
2022-08-05T03:57:56.606Z,68.10
2022-08-05T04:01:42.522Z,64.30
2022-08-05T04:05:33.308Z,66.00
2022-08-05T04:09:20.203Z,67.50
2022-08-05T04:13:08.214Z,65.70
2022-08-05T04:16:50.426Z,65.80
2022-08-05T04:20:34.987Z,66.20
2022-08-05T04:24:19.645Z,66.50
2022-08-05T04:28:12.717Z,67.20
2022-08-05T04:31:56.911Z,68.00
2022-08-05T04:36:09.511Z,68.20
2022-08-05T04:39:40.679Z,68.60
2022-08-05T04:43:22.598Z,69.90
2022-08-05T04:47:07.910Z,70.00
2022-08-05T04:51:02.000Z,70.10
2022-08-05T04:54:46.071Z,70.40
2022-08-05T04:58:27.865Z,70.30
2022-08-05T05:02:37.567Z,70.70
2022-08-05T05:06:36.099Z,71.20
2022-08-05T05:10:14.251Z,71.70
2022-08-05T05:13:56.037Z,71.60
2022-08-05T05:17:56.792Z,72.00
2022-08-05T05:21:39.564Z,72.90
2022-08-05T05:25:21.394Z,72.70
2022-08-05T05:29:15.116Z,72.60
2022-08-05T05:33:00.815Z,72.80
2022-08-05T05:36:43.201Z,73.30
2022-08-05T05:40:29.385Z,73.80
2022-08-05T05:44:37.771Z,74.20
2022-08-05T05:48:16.060Z,74.00
2022-08-05T05:51:58.053Z,74.10
2022-08-05T05:55:51.507Z,74.60
2022-08-05T05:59:41.669Z,74.90
2022-08-05T06:03:54.172Z,75.30
2022-08-05T06:07:41.766Z,75.70
2022-08-05T06:11:24.325Z,75.40
2022-08-05T06:15:07.992Z,75.50
2022-08-05T06:18:50.020Z,76.60
2022-08-05T06:22:35.785Z,76.10
2022-08-05T06:26:21.705Z,76.80
2022-08-05T06:30:17.729Z,77.10
2022-08-05T06:34:03.019Z,77.20
2022-08-05T06:37:57.616Z,77.20
2022-08-05T06:41:40.755Z,77.10
2022-08-05T06:45:44.466Z,77.30
2022-08-05T06:50:01.582Z,77.70
2022-08-05T06:53:27.834Z,77.80
2022-08-05T06:57:57.716Z,77.80
2022-08-05T07:01:13.904Z,78.10
2022-08-05T07:05:02.694Z,78.30
2022-08-05T07:08:47.673Z,78.10
2022-08-05T07:12:52.242Z,78.50
2022-08-05T07:17:57.135Z,78.30
2022-08-05T07:20:51.039Z,78.40
2022-08-05T07:24:34.479Z,78.50
2022-08-05T07:28:26.290Z,78.10
2022-08-05T07:32:08.191Z,77.90
2022-08-05T07:36:03.520Z,77.90
2022-08-05T07:40:04.770Z,77.90
2022-08-05T07:43:56.692Z,77.80
2022-08-05T07:47:42.146Z,77.80
2022-08-05T07:51:41.110Z,77.30
2022-08-05T07:56:05.795Z,77.40
2022-08-05T07:59:39.003Z,77.20
2022-08-05T08:03:22.564Z,76.70
2022-08-05T08:07:05.601Z,76.60
2022-08-05T08:10:49.273Z,76.10
2022-08-05T08:14:31.053Z,75.90
2022-08-05T08:18:14.394Z,75.70
2022-08-05T08:21:56.507Z,76.70
2022-08-05T08:26:00.197Z,82.90
2022-08-05T08:30:04.118Z,90.80
2022-08-05T08:33:42.993Z,92.80
2022-08-05T08:37:27.825Z,92.10
2022-08-05T08:41:13.964Z,91.70
2022-08-05T08:45:22.886Z,85.10
2022-08-05T08:49:17.413Z,81.00
2022-08-05T08:53:08.058Z,77.40
2022-08-05T08:56:56.614Z,69.10
2022-08-05T09:00:41.201Z,70.30
2022-08-05T09:04:23.855Z,63.70
2022-08-05T09:08:12.578Z,65.10
2022-08-05T09:11:58.564Z,59.90
2022-08-05T09:15:47.879Z,57.30
2022-08-05T09:19:36.785Z,56.00
2022-08-05T09:23:37.513Z,56.30
2022-08-05T09:28:04.744Z,54.30
2022-08-05T09:32:41.484Z,49.10
2022-08-05T09:36:11.611Z,51.10
2022-08-05T09:39:57.967Z,44.80
2022-08-05T09:43:41.742Z,48.40
2022-08-05T09:47:29.686Z,47.20
2022-08-05T09:51:34.138Z,45.40
2022-08-05T09:55:58.237Z,42.00
2022-08-05T09:59:24.369Z,43.60
2022-08-05T10:03:11.085Z,38.30
2022-08-05T10:06:59.556Z,42.10
2022-08-05T10:10:44.435Z,39.50
2022-08-05T10:14:32.240Z,39.50
2022-08-05T10:18:25.950Z,38.00
2022-08-05T10:22:15.640Z,37.40
2022-08-05T10:26:14.313Z,37.50
2022-08-05T10:32:48.963Z,39.50
2022-08-05T10:34:17.002Z,38.20
2022-08-05T10:38:02.751Z,38.30
2022-08-05T10:42:01.327Z,35.90
2022-08-05T10:45:55.101Z,33.70
2022-08-05T10:50:31.748Z,35.90
2022-08-05T10:54:23.043Z,33.40
2022-08-05T10:58:11.675Z,36.50
2022-08-05T11:02:38.109Z,34.10
2022-08-05T11:06:17.903Z,33.40
2022-08-05T11:10:04.093Z,32.90
2022-08-05T11:13:58.134Z,33.10
2022-08-05T11:17:59.783Z,33.50
2022-08-05T11:21:49.485Z,32.90
2022-08-05T11:26:05.736Z,31.30
2022-08-05T11:29:58.886Z,31.30
2022-08-05T11:33:58.568Z,34.10
2022-08-05T11:38:28.888Z,31.20
2022-08-05T11:42:01.980Z,30.40
2022-08-05T11:46:23.374Z,30.90
2022-08-05T11:50:00.538Z,33.90
2022-08-05T11:53:44.124Z,34.70
2022-08-05T11:57:39.244Z,34.50
2022-08-05T12:01:22.485Z,33.20
2022-08-05T12:05:08.088Z,33.40
2022-08-05T12:09:00.044Z,32.60
2022-08-05T12:12:46.621Z,30.00
2022-08-05T12:16:45.520Z,32.30
2022-08-05T12:20:33.597Z,33.80
2022-08-05T12:24:20.882Z,32.50
2022-08-05T12:28:06.417Z,30.60
2022-08-05T12:31:53.619Z,29.40
2022-08-05T12:35:37.123Z,31.10
2022-08-05T12:39:34.562Z,31.70
2022-08-05T12:43:21.289Z,29.30
2022-08-05T12:47:06.134Z,29.40
2022-08-05T12:52:10.924Z,30.90
2022-08-05T12:55:23.808Z,30.10
2022-08-05T12:59:46.647Z,28.80
2022-08-05T13:03:38.937Z,29.80
2022-08-05T13:07:56.033Z,29.50
2022-08-05T13:12:01.696Z,31.40
2022-08-05T13:15:41.259Z,31.00
2022-08-05T13:19:50.975Z,30.40
2022-08-05T13:23:32.825Z,30.00
2022-08-05T13:27:38.095Z,29.40
2022-08-05T13:32:03.186Z,28.10
2022-08-05T13:35:31.294Z,29.10
2022-08-05T13:40:15.788Z,28.80
2022-08-05T13:43:44.189Z,28.60
2022-08-05T13:47:35.429Z,28.70
2022-08-05T13:51:40.217Z,28.40
2022-08-05T13:55:41.033Z,26.60
2022-08-05T13:59:27.496Z,27.60
2022-08-05T14:03:12.692Z,27.50
2022-08-05T14:07:12.076Z,27.80
2022-08-05T14:10:59.789Z,27.60
2022-08-05T14:14:51.355Z,27.70
2022-08-05T14:18:33.301Z,27.80
2022-08-05T14:22:15.166Z,27.00
2022-08-05T14:25:58.105Z,26.50
2022-08-05T14:29:41.235Z,27.10
2022-08-05T14:33:24.146Z,28.20
2022-08-05T14:37:06.117Z,28.50
2022-08-05T14:40:48.461Z,27.40
2022-08-05T14:44:32.469Z,27.80
2022-08-05T14:48:32.624Z,28.10
2022-08-05T14:52:30.589Z,29.10
2022-08-05T14:56:22.627Z,30.00
2022-08-05T15:00:05.610Z,29.30
2022-08-05T15:03:48.758Z,29.10
2022-08-05T15:08:05.698Z,29.00
2022-08-05T15:11:52.724Z,28.80
2022-08-05T15:15:55.151Z,28.10
2022-08-05T15:19:37.309Z,28.00
2022-08-05T15:23:20.901Z,28.40
2022-08-05T15:27:03.462Z,27.50
2022-08-05T15:30:46.467Z,28.00
2022-08-05T15:34:32.210Z,28.90
2022-08-05T15:38:34.062Z,28.40
2022-08-05T15:42:55.634Z,28.40
2022-08-05T15:46:24.090Z,27.90
2022-08-05T15:50:08.072Z,27.50
2022-08-05T15:53:51.938Z,27.70
2022-08-05T15:57:34.784Z,28.00
2022-08-05T16:01:18.004Z,28.00
2022-08-05T16:05:00.152Z,27.70
2022-08-05T16:08:42.535Z,27.60
2022-08-05T16:12:24.544Z,27.60
2022-08-05T16:16:06.781Z,27.40
2022-08-05T16:20:04.525Z,27.90
2022-08-05T16:23:53.656Z,27.90
2022-08-05T16:28:00.075Z,27.90
2022-08-05T16:31:56.968Z,27.70
2022-08-05T16:35:43.117Z,28.30
2022-08-05T16:40:06.443Z,28.40
2022-08-05T16:43:31.790Z,27.90
2022-08-05T16:47:28.562Z,28.00
2022-08-05T16:51:16.172Z,28.50
2022-08-05T16:54:57.933Z,29.20
2022-08-05T16:58:40.966Z,29.90
2022-08-05T17:02:23.454Z,29.00
2022-08-05T17:06:05.662Z,28.90
2022-08-05T17:09:58.366Z,29.40
2022-08-05T17:13:42.264Z,29.60
2022-08-05T17:17:24.160Z,30.00
2022-08-05T17:21:24.053Z,31.20
2022-08-05T17:25:22.130Z,31.30
2022-08-05T17:29:10.023Z,30.70
2022-08-05T17:32:52.644Z,30.80
2022-08-05T17:36:38.717Z,31.10
2022-08-05T17:40:23.226Z,30.20
2022-08-05T17:44:05.053Z,30.10
2022-08-05T17:47:51.346Z,30.40
2022-08-05T17:51:40.486Z,30.80
2022-08-05T17:55:27.242Z,31.00
2022-08-05T17:59:16.185Z,31.50
2022-08-05T18:03:04.465Z,32.00
2022-08-05T18:06:50.010Z,32.40
2022-08-05T18:10:32.266Z,33.20
2022-08-05T18:14:20.506Z,33.40
2022-08-05T18:18:05.540Z,33.00
2022-08-05T18:22:09.777Z,33.00
2022-08-05T18:25:57.849Z,33.40
2022-08-05T18:29:41.626Z,34.00
2022-08-05T18:33:24.211Z,34.40
2022-08-05T18:37:12.646Z,34.40
2022-08-05T18:41:55.145Z,34.40
2022-08-05T18:45:00.426Z,34.30
2022-08-05T18:48:43.352Z,34.20
2022-08-05T18:52:41.384Z,34.40
2022-08-05T18:56:33.991Z,34.60
2022-08-05T19:00:20.244Z,34.70
2022-08-05T19:04:02.507Z,35.00
2022-08-05T19:07:49.831Z,35.30
2022-08-05T19:11:59.204Z,35.60
2022-08-05T19:15:57.983Z,36.00
2022-08-05T19:19:35.953Z,36.50
2022-08-05T19:24:06.840Z,37.00
2022-08-05T19:27:30.386Z,36.90
2022-08-05T19:31:18.080Z,37.50
2022-08-05T19:35:06.553Z,38.20
2022-08-05T19:38:48.618Z,39.00
2022-08-05T19:42:35.424Z,39.10
2022-08-05T19:46:30.288Z,39.40
2022-08-05T19:50:12.868Z,40.00
2022-08-05T19:54:04.574Z,40.00
2022-08-05T19:58:14.447Z,40.50
2022-08-05T20:01:49.059Z,41.10
2022-08-05T20:05:50.072Z,41.20
2022-08-05T20:09:54.697Z,42.20
2022-08-05T20:13:58.251Z,42.60
2022-08-05T20:17:36.514Z,42.20
2022-08-05T20:21:18.932Z,42.20
2022-08-05T20:25:03.338Z,42.60
2022-08-05T20:28:48.550Z,43.70
2022-08-05T20:32:30.640Z,43.20
2022-08-05T20:36:16.267Z,43.30
2022-08-05T20:39:59.774Z,43.50
2022-08-05T20:43:59.851Z,43.80
2022-08-05T20:47:43.473Z,44.30
2022-08-05T20:51:28.535Z,44.30
2022-08-05T20:55:56.841Z,44.50
2022-08-05T20:59:18.980Z,44.60
2022-08-05T21:03:07.337Z,44.70
2022-08-05T21:06:50.010Z,45.30
2022-08-05T21:10:35.656Z,45.60
2022-08-05T21:14:19.218Z,45.70
2022-08-05T21:18:01.936Z,46.00
2022-08-05T21:21:50.864Z,46.30
2022-08-05T21:25:34.314Z,46.80
2022-08-05T21:29:16.717Z,46.90
2022-08-05T21:32:58.725Z,47.10
2022-08-05T21:36:42.315Z,47.20
2022-08-05T21:40:25.268Z,47.70
2022-08-05T21:44:07.093Z,48.10
2022-08-05T21:47:56.594Z,48.10
2022-08-05T21:52:15.810Z,48.10
2022-08-05T21:56:01.668Z,48.20
2022-08-05T22:00:03.009Z,48.50
2022-08-05T22:03:48.814Z,48.60
2022-08-05T22:07:54.155Z,48.80
2022-08-05T22:11:36.855Z,49.00
2022-08-05T22:16:00.638Z,49.30
2022-08-05T22:20:01.036Z,49.50
2022-08-05T22:24:01.075Z,49.80
2022-08-05T22:28:05.035Z,50.10
2022-08-05T22:31:46.397Z,50.10
2022-08-05T22:35:47.951Z,50.30
2022-08-05T22:39:33.984Z,50.70
2022-08-05T22:43:15.968Z,50.80
2022-08-05T22:47:29.841Z,51.00
2022-08-05T22:51:20.306Z,51.10
2022-08-05T22:55:19.331Z,51.20
2022-08-05T22:59:42.510Z,51.90
2022-08-05T23:03:05.044Z,51.60
2022-08-05T23:06:47.852Z,51.70
2022-08-05T23:10:30.018Z,51.90
2022-08-05T23:14:13.018Z,52.20
2022-08-05T23:18:01.601Z,52.50
2022-08-05T23:21:48.307Z,52.80
2022-08-05T23:25:53.412Z,52.70
2022-08-05T23:29:34.516Z,53.00
2022-08-05T23:33:25.806Z,53.00
2022-08-05T23:37:18.762Z,53.10
2022-08-05T23:41:00.565Z,53.20
2022-08-05T23:44:44.287Z,53.30
2022-08-05T23:48:26.418Z,53.50
2022-08-05T23:52:27.502Z,53.50
2022-08-05T23:56:10.094Z,53.90
